sensor_id;sensor_type;location;lat;lon;timestamp;P1;durP1;ratioP1;P2;durP2;ratioP2
2129;SDS011;1071;52.544;13.374;2023-01-23T00:01:56;19.55;;;13.75;;
2129;SDS011;1071;52.544;13.374;2023-01-23T00:04:28;15.80;;;13.10;;
2129;SDS011;1071;52.544;13.374;2023-01-23T00:06:55;18.52;;;14.38;;
2129;SDS011;1071;52.544;13.374;2023-01-23T00:09:27;16.65;;;13.63;;
2129;SDS011;1071;52.544;13.374;2023-01-23T00:11:54;20.48;;;13.10;;
2129;SDS011;1071;52.544;13.374;2023-01-23T00:14:21;19.80;;;14.10;;
2129;SDS011;1071;52.544;13.374;2023-01-23T00:16:48;19.63;;;14.18;;
2129;SDS011;1071;52.544;13.374;2023-01-23T00:19:17;22.65;;;14.55;;
2129;SDS011;1071;52.544;13.374;2023-01-23T00:21:45;21.55;;;14.18;;
2129;SDS011;1071;52.544;13.374;2023-01-23T00:24:14;19.17;;;13.88;;
2129;SDS011;1071;52.544;13.374;2023-01-23T00:26:42;18.98;;;13.38;;
2129;SDS011;1071;52.544;13.374;2023-01-23T00:29:09;19.00;;;13.75;;
2129;SDS011;1071;52.544;13.374;2023-01-23T00:31:36;17.60;;;13.60;;
2129;SDS011;1071;52.544;13.374;2023-01-23T00:34:05;20.98;;;13.95;;
2129;SDS011;1071;52.544;13.374;2023-01-23T00:36:36;18.40;;;12.65;;
2129;SDS011;1071;52.544;13.374;2023-01-23T00:39:05;17.98;;;12.25;;
2129;SDS011;1071;52.544;13.374;2023-01-23T00:41:34;21.52;;;14.00;;
2129;SDS011;1071;52.544;13.374;2023-01-23T00:44:01;18.60;;;15.00;;
2129;SDS011;1071;52.544;13.374;2023-01-23T00:46:28;17.00;;;13.18;;
2129;SDS011;1071;52.544;13.374;2023-01-23T00:48:55;16.98;;;12.38;;
2129;SDS011;1071;52.544;13.374;2023-01-23T00:51:24;17.95;;;14.02;;
2129;SDS011;1071;52.544;13.374;2023-01-23T00:53:56;18.85;;;13.38;;
2129;SDS011;1071;52.544;13.374;2023-01-23T00:56:23;16.60;;;12.75;;
2129;SDS011;1071;52.544;13.374;2023-01-23T00:58:50;20.30;;;14.85;;
2129;SDS011;1071;52.544;13.374;2023-01-23T01:01:18;21.05;;;14.57;;
2129;SDS011;1071;52.544;13.374;2023-01-23T01:03:46;18.10;;;14.80;;
2129;SDS011;1071;52.544;13.374;2023-01-23T01:06:14;20.77;;;15.18;;
2129;SDS011;1071;52.544;13.374;2023-01-23T01:08:43;17.33;;;13.60;;
2129;SDS011;1071;52.544;13.374;2023-01-23T01:11:11;20.50;;;14.30;;
2129;SDS011;1071;52.544;13.374;2023-01-23T01:13:40;21.10;;;14.05;;
2129;SDS011;1071;52.544;13.374;2023-01-23T01:16:09;17.05;;;13.70;;
2129;SDS011;1071;52.544;13.374;2023-01-23T01:18:37;19.10;;;13.48;;
2129;SDS011;1071;52.544;13.374;2023-01-23T01:21:05;20.77;;;13.90;;
2129;SDS011;1071;52.544;13.374;2023-01-23T01:23:35;18.40;;;14.15;;
2129;SDS011;1071;52.544;13.374;2023-01-23T01:26:06;19.33;;;14.05;;
2129;SDS011;1071;52.544;13.374;2023-01-23T01:28:36;21.98;;;15.18;;
2129;SDS011;1071;52.544;13.374;2023-01-23T01:31:05;21.95;;;15.45;;
2129;SDS011;1071;52.544;13.374;2023-01-23T01:33:35;17.35;;;11.90;;
2129;SDS011;1071;52.544;13.374;2023-01-23T01:36:06;19.83;;;14.68;;
2129;SDS011;1071;52.544;13.374;2023-01-23T01:38:37;16.80;;;13.63;;
2129;SDS011;1071;52.544;13.374;2023-01-23T01:41:17;20.77;;;15.07;;
2129;SDS011;1071;52.544;13.374;2023-01-23T01:43:45;20.38;;;15.07;;
2129;SDS011;1071;52.544;13.374;2023-01-23T01:46:14;17.95;;;13.73;;
2129;SDS011;1071;52.544;13.374;2023-01-23T01:48:49;17.73;;;13.63;;
2129;SDS011;1071;52.544;13.374;2023-01-23T01:51:30;19.40;;;13.18;;
2129;SDS011;1071;52.544;13.374;2023-01-23T01:54:02;18.27;;;13.52;;
2129;SDS011;1071;52.544;13.374;2023-01-23T01:56:40;20.67;;;14.48;;
2129;SDS011;1071;52.544;13.374;2023-01-23T01:59:14;23.65;;;15.07;;
2129;SDS011;1071;52.544;13.374;2023-01-23T02:02:01;17.65;;;13.70;;
2129;SDS011;1071;52.544;13.374;2023-01-23T02:04:31;19.20;;;13.73;;
2129;SDS011;1071;52.544;13.374;2023-01-23T02:07:01;20.40;;;13.82;;
2129;SDS011;1071;52.544;13.374;2023-01-23T02:09:32;18.58;;;14.30;;
2129;SDS011;1071;52.544;13.374;2023-01-23T02:12:00;18.42;;;12.93;;
2129;SDS011;1071;52.544;13.374;2023-01-23T02:14:30;21.73;;;14.95;;
2129;SDS011;1071;52.544;13.374;2023-01-23T02:16:57;22.98;;;16.48;;
2129;SDS011;1071;52.544;13.374;2023-01-23T02:19:30;18.58;;;13.60;;
2129;SDS011;1071;52.544;13.374;2023-01-23T02:22:08;18.17;;;14.70;;
2129;SDS011;1071;52.544;13.374;2023-01-23T02:24:49;20.00;;;15.30;;
2129;SDS011;1071;52.544;13.374;2023-01-23T02:27:25;18.95;;;14.35;;
2129;SDS011;1071;52.544;13.374;2023-01-23T02:29:52;19.23;;;15.75;;
2129;SDS011;1071;52.544;13.374;2023-01-23T02:32:20;21.05;;;15.07;;
2129;SDS011;1071;52.544;13.374;2023-01-23T02:34:48;21.73;;;14.52;;
2129;SDS011;1071;52.544;13.374;2023-01-23T02:37:16;17.52;;;13.40;;
2129;SDS011;1071;52.544;13.374;2023-01-23T02:39:44;22.55;;;14.20;;
2129;SDS011;1071;52.544;13.374;2023-01-23T02:42:14;19.13;;;14.80;;
2129;SDS011;1071;52.544;13.374;2023-01-23T02:44:45;16.23;;;13.25;;
2129;SDS011;1071;52.544;13.374;2023-01-23T02:47:14;17.77;;;13.35;;
2129;SDS011;1071;52.544;13.374;2023-01-23T02:49:41;19.55;;;15.00;;
2129;SDS011;1071;52.544;13.374;2023-01-23T02:52:08;20.60;;;14.45;;
2129;SDS011;1071;52.544;13.374;2023-01-23T02:54:37;16.35;;;12.77;;
2129;SDS011;1071;52.544;13.374;2023-01-23T02:57:04;19.20;;;14.98;;
2129;SDS011;1071;52.544;13.374;2023-01-23T02:59:31;21.58;;;16.55;;
2129;SDS011;1071;52.544;13.374;2023-01-23T03:02:17;18.75;;;14.85;;
2129;SDS011;1071;52.544;13.374;2023-01-23T03:04:44;23.38;;;14.50;;
2129;SDS011;1071;52.544;13.374;2023-01-23T03:07:11;20.05;;;15.77;;
2129;SDS011;1071;52.544;13.374;2023-01-23T03:09:39;23.63;;;15.20;;
2129;SDS011;1071;52.544;13.374;2023-01-23T03:12:08;21.95;;;15.07;;
2129;SDS011;1071;52.544;13.374;2023-01-23T03:14:50;22.83;;;14.98;;
2129;SDS011;1071;52.544;13.374;2023-01-23T03:17:34;19.75;;;15.32;;
2129;SDS011;1071;52.544;13.374;2023-01-23T03:20:01;19.70;;;14.88;;
2129;SDS011;1071;52.544;13.374;2023-01-23T03:22:30;18.20;;;13.23;;
2129;SDS011;1071;52.544;13.374;2023-01-23T03:24:57;17.95;;;13.30;;
2129;SDS011;1071;52.544;13.374;2023-01-23T03:27:25;22.52;;;15.32;;
2129;SDS011;1071;52.544;13.374;2023-01-23T03:29:56;22.65;;;15.05;;
2129;SDS011;1071;52.544;13.374;2023-01-23T03:32:42;21.00;;;14.95;;
2129;SDS011;1071;52.544;13.374;2023-01-23T03:35:10;18.55;;;14.15;;
2129;SDS011;1071;52.544;13.374;2023-01-23T03:37:40;19.95;;;13.60;;
2129;SDS011;1071;52.544;13.374;2023-01-23T03:40:09;19.90;;;15.63;;
2129;SDS011;1071;52.544;13.374;2023-01-23T03:42:58;19.38;;;14.13;;
2129;SDS011;1071;52.544;13.374;2023-01-23T03:45:25;24.00;;;15.43;;
2129;SDS011;1071;52.544;13.374;2023-01-23T03:47:53;21.83;;;15.02;;
2129;SDS011;1071;52.544;13.374;2023-01-23T03:50:22;21.95;;;16.35;;
2129;SDS011;1071;52.544;13.374;2023-01-23T03:52:49;21.33;;;14.43;;
2129;SDS011;1071;52.544;13.374;2023-01-23T03:55:16;20.90;;;14.93;;
2129;SDS011;1071;52.544;13.374;2023-01-23T03:57:43;18.63;;;14.15;;
2129;SDS011;1071;52.544;13.374;2023-01-23T04:00:11;20.75;;;14.52;;
2129;SDS011;1071;52.544;13.374;2023-01-23T04:02:38;19.35;;;15.43;;
2129;SDS011;1071;52.544;13.374;2023-01-23T04:05:08;20.60;;;14.30;;
2129;SDS011;1071;52.544;13.374;2023-01-23T04:07:35;18.85;;;15.68;;
2129;SDS011;1071;52.544;13.374;2023-01-23T04:10:02;21.40;;;15.02;;
2129;SDS011;1071;52.544;13.374;2023-01-23T04:12:32;16.77;;;13.52;;
2129;SDS011;1071;52.544;13.374;2023-01-23T04:14:59;21.98;;;16.10;;
2129;SDS011;1071;52.544;13.374;2023-01-23T04:17:26;17.88;;;14.18;;
2129;SDS011;1071;52.544;13.374;2023-01-23T04:19:53;19.58;;;14.98;;
2129;SDS011;1071;52.544;13.374;2023-01-23T04:22:21;21.80;;;15.23;;
2129;SDS011;1071;52.544;13.374;2023-01-23T04:24:48;18.60;;;13.57;;
2129;SDS011;1071;52.544;13.374;2023-01-23T04:27:15;20.90;;;15.57;;
2129;SDS011;1071;52.544;13.374;2023-01-23T04:29:42;21.08;;;15.98;;
2129;SDS011;1071;52.544;13.374;2023-01-23T04:32:12;20.80;;;14.75;;
2129;SDS011;1071;52.544;13.374;2023-01-23T04:34:39;20.92;;;14.57;;
2129;SDS011;1071;52.544;13.374;2023-01-23T04:37:06;21.63;;;15.73;;
2129;SDS011;1071;52.544;13.374;2023-01-23T04:39:34;20.20;;;15.15;;
2129;SDS011;1071;52.544;13.374;2023-01-23T04:42:01;17.42;;;13.30;;
2129;SDS011;1071;52.544;13.374;2023-01-23T04:44:29;20.80;;;14.68;;
2129;SDS011;1071;52.544;13.374;2023-01-23T04:46:59;25.17;;;17.30;;
2129;SDS011;1071;52.544;13.374;2023-01-23T04:49:26;24.15;;;14.98;;
2129;SDS011;1071;52.544;13.374;2023-01-23T04:51:53;20.15;;;15.40;;
2129;SDS011;1071;52.544;13.374;2023-01-23T04:54:20;20.30;;;14.00;;
2129;SDS011;1071;52.544;13.374;2023-01-23T04:56:48;21.33;;;15.63;;
2129;SDS011;1071;52.544;13.374;2023-01-23T04:59:16;19.15;;;14.52;;
2129;SDS011;1071;52.544;13.374;2023-01-23T05:01:43;20.48;;;15.60;;
2129;SDS011;1071;52.544;13.374;2023-01-23T05:04:10;23.13;;;16.35;;
2129;SDS011;1071;52.544;13.374;2023-01-23T05:06:38;18.08;;;13.65;;
2129;SDS011;1071;52.544;13.374;2023-01-23T05:09:05;24.02;;;15.70;;
2129;SDS011;1071;52.544;13.374;2023-01-23T05:11:32;27.67;;;16.95;;
2129;SDS011;1071;52.544;13.374;2023-01-23T05:14:01;22.63;;;16.05;;
2129;SDS011;1071;52.544;13.374;2023-01-23T05:16:28;20.85;;;16.63;;
2129;SDS011;1071;52.544;13.374;2023-01-23T05:18:55;21.50;;;16.88;;
2129;SDS011;1071;52.544;13.374;2023-01-23T05:21:22;21.00;;;15.32;;
2129;SDS011;1071;52.544;13.374;2023-01-23T05:23:49;20.70;;;15.27;;
2129;SDS011;1071;52.544;13.374;2023-01-23T05:26:16;21.65;;;16.40;;
2129;SDS011;1071;52.544;13.374;2023-01-23T05:28:43;19.88;;;16.13;;
2129;SDS011;1071;52.544;13.374;2023-01-23T05:31:12;19.80;;;14.27;;
2129;SDS011;1071;52.544;13.374;2023-01-23T05:33:39;23.00;;;16.20;;
2129;SDS011;1071;52.544;13.374;2023-01-23T05:36:06;23.17;;;18.00;;
2129;SDS011;1071;52.544;13.374;2023-01-23T05:38:33;22.80;;;16.35;;
2129;SDS011;1071;52.544;13.374;2023-01-23T05:41:01;21.95;;;15.50;;
2129;SDS011;1071;52.544;13.374;2023-01-23T05:43:30;23.77;;;16.52;;
2129;SDS011;1071;52.544;13.374;2023-01-23T05:45:58;21.23;;;15.63;;
2129;SDS011;1071;52.544;13.374;2023-01-23T05:48:27;19.15;;;15.38;;
2129;SDS011;1071;52.544;13.374;2023-01-23T05:50:54;22.20;;;15.02;;
2129;SDS011;1071;52.544;13.374;2023-01-23T05:53:22;21.40;;;15.65;;
2129;SDS011;1071;52.544;13.374;2023-01-23T05:55:50;24.00;;;17.15;;
2129;SDS011;1071;52.544;13.374;2023-01-23T05:58:17;26.35;;;16.33;;
2129;SDS011;1071;52.544;13.374;2023-01-23T06:00:44;23.00;;;16.55;;
2129;SDS011;1071;52.544;13.374;2023-01-23T06:03:11;23.92;;;18.30;;
2129;SDS011;1071;52.544;13.374;2023-01-23T06:05:40;21.40;;;15.32;;
2129;SDS011;1071;52.544;13.374;2023-01-23T06:08:07;25.33;;;16.90;;
2129;SDS011;1071;52.544;13.374;2023-01-23T06:10:35;23.88;;;16.52;;
2129;SDS011;1071;52.544;13.374;2023-01-23T06:13:02;24.23;;;17.23;;
2129;SDS011;1071;52.544;13.374;2023-01-23T06:15:29;20.85;;;16.25;;
2129;SDS011;1071;52.544;13.374;2023-01-23T06:17:56;17.75;;;14.77;;
2129;SDS011;1071;52.544;13.374;2023-01-23T06:20:23;22.02;;;15.70;;
2129;SDS011;1071;52.544;13.374;2023-01-23T06:22:53;19.05;;;15.65;;
2129;SDS011;1071;52.544;13.374;2023-01-23T06:25:20;24.52;;;16.63;;
2129;SDS011;1071;52.544;13.374;2023-01-23T06:27:47;24.15;;;15.52;;
2129;SDS011;1071;52.544;13.374;2023-01-23T06:30:14;20.70;;;16.35;;
2129;SDS011;1071;52.544;13.374;2023-01-23T06:32:41;20.50;;;15.43;;
2129;SDS011;1071;52.544;13.374;2023-01-23T06:35:08;19.88;;;15.45;;
2129;SDS011;1071;52.544;13.374;2023-01-23T06:37:35;20.25;;;15.10;;
2129;SDS011;1071;52.544;13.374;2023-01-23T06:40:06;24.20;;;16.23;;
2129;SDS011;1071;52.544;13.374;2023-01-23T06:42:37;24.30;;;16.50;;
2129;SDS011;1071;52.544;13.374;2023-01-23T06:45:05;21.95;;;16.83;;
2129;SDS011;1071;52.544;13.374;2023-01-23T06:47:33;22.20;;;16.08;;
2129;SDS011;1071;52.544;13.374;2023-01-23T06:50:00;19.65;;;16.45;;
2129;SDS011;1071;52.544;13.374;2023-01-23T06:52:28;22.45;;;15.15;;
2129;SDS011;1071;52.544;13.374;2023-01-23T06:54:55;21.13;;;15.23;;
2129;SDS011;1071;52.544;13.374;2023-01-23T06:57:23;22.02;;;16.00;;
2129;SDS011;1071;52.544;13.374;2023-01-23T06:59:52;24.25;;;16.50;;
2129;SDS011;1071;52.544;13.374;2023-01-23T07:02:19;20.20;;;16.23;;
2129;SDS011;1071;52.544;13.374;2023-01-23T07:04:47;22.40;;;16.80;;
2129;SDS011;1071;52.544;13.374;2023-01-23T07:07:16;25.85;;;16.88;;
2129;SDS011;1071;52.544;13.374;2023-01-23T07:09:44;20.67;;;14.27;;
2129;SDS011;1071;52.544;13.374;2023-01-23T07:12:11;27.52;;;16.80;;
2129;SDS011;1071;52.544;13.374;2023-01-23T07:14:40;24.95;;;18.05;;
2129;SDS011;1071;52.544;13.374;2023-01-23T07:17:07;24.30;;;15.40;;
2129;SDS011;1071;52.544;13.374;2023-01-23T07:19:37;25.67;;;17.63;;
2129;SDS011;1071;52.544;13.374;2023-01-23T07:22:04;24.25;;;16.20;;
2129;SDS011;1071;52.544;13.374;2023-01-23T07:24:31;20.58;;;15.20;;
2129;SDS011;1071;52.544;13.374;2023-01-23T07:26:59;23.40;;;16.58;;
2129;SDS011;1071;52.544;13.374;2023-01-23T07:29:26;28.17;;;17.90;;
2129;SDS011;1071;52.544;13.374;2023-01-23T07:31:54;21.63;;;16.20;;
2129;SDS011;1071;52.544;13.374;2023-01-23T07:34:24;21.88;;;15.30;;
2129;SDS011;1071;52.544;13.374;2023-01-23T07:36:51;25.08;;;17.55;;
2129;SDS011;1071;52.544;13.374;2023-01-23T07:39:18;23.42;;;16.27;;
2129;SDS011;1071;52.544;13.374;2023-01-23T07:41:45;23.38;;;17.60;;
2129;SDS011;1071;52.544;13.374;2023-01-23T07:44:15;23.02;;;17.15;;
2129;SDS011;1071;52.544;13.374;2023-01-23T07:46:46;20.73;;;16.08;;
2129;SDS011;1071;52.544;13.374;2023-01-23T07:49:17;24.77;;;17.45;;
2129;SDS011;1071;52.544;13.374;2023-01-23T07:51:45;23.92;;;17.33;;
2129;SDS011;1071;52.544;13.374;2023-01-23T07:54:12;23.52;;;15.77;;
2129;SDS011;1071;52.544;13.374;2023-01-23T07:56:48;25.42;;;16.52;;
2129;SDS011;1071;52.544;13.374;2023-01-23T07:59:17;25.60;;;18.13;;
2129;SDS011;1071;52.544;13.374;2023-01-23T08:01:46;24.88;;;19.23;;
2129;SDS011;1071;52.544;13.374;2023-01-23T08:04:15;24.52;;;15.63;;
2129;SDS011;1071;52.544;13.374;2023-01-23T08:06:43;22.17;;;15.55;;
2129;SDS011;1071;52.544;13.374;2023-01-23T08:09:13;22.38;;;15.68;;
2129;SDS011;1071;52.544;13.374;2023-01-23T08:11:40;26.02;;;16.88;;
2129;SDS011;1071;52.544;13.374;2023-01-23T08:14:07;26.40;;;18.90;;
2129;SDS011;1071;52.544;13.374;2023-01-23T08:16:34;27.75;;;17.30;;
2129;SDS011;1071;52.544;13.374;2023-01-23T08:19:06;23.73;;;17.25;;
2129;SDS011;1071;52.544;13.374;2023-01-23T08:21:33;25.63;;;18.30;;
2129;SDS011;1071;52.544;13.374;2023-01-23T08:24:02;23.02;;;16.33;;
2129;SDS011;1071;52.544;13.374;2023-01-23T08:26:29;21.50;;;15.10;;
2129;SDS011;1071;52.544;13.374;2023-01-23T08:28:57;20.40;;;15.75;;
2129;SDS011;1071;52.544;13.374;2023-01-23T08:31:25;23.13;;;18.58;;
2129;SDS011;1071;52.544;13.374;2023-01-23T08:33:54;25.80;;;18.52;;
2129;SDS011;1071;52.544;13.374;2023-01-23T08:36:21;24.30;;;18.10;;
2129;SDS011;1071;52.544;13.374;2023-01-23T08:38:48;26.25;;;17.17;;
2129;SDS011;1071;52.544;13.374;2023-01-23T08:41:19;25.58;;;17.70;;
2129;SDS011;1071;52.544;13.374;2023-01-23T08:43:47;26.73;;;18.23;;
2129;SDS011;1071;52.544;13.374;2023-01-23T08:46:19;24.85;;;16.95;;
2129;SDS011;1071;52.544;13.374;2023-01-23T08:48:50;23.58;;;17.35;;
2129;SDS011;1071;52.544;13.374;2023-01-23T08:51:19;22.80;;;17.50;;
2129;SDS011;1071;52.544;13.374;2023-01-23T08:53:50;28.30;;;17.13;;
2129;SDS011;1071;52.544;13.374;2023-01-23T08:56:19;29.50;;;17.48;;
2129;SDS011;1071;52.544;13.374;2023-01-23T08:58:51;25.45;;;16.00;;
2129;SDS011;1071;52.544;13.374;2023-01-23T09:01:21;22.25;;;16.02;;
2129;SDS011;1071;52.544;13.374;2023-01-23T09:03:49;26.17;;;17.20;;
2129;SDS011;1071;52.544;13.374;2023-01-23T09:06:17;23.83;;;18.55;;
2129;SDS011;1071;52.544;13.374;2023-01-23T09:08:46;27.05;;;18.58;;
2129;SDS011;1071;52.544;13.374;2023-01-23T09:11:14;22.98;;;17.17;;
2129;SDS011;1071;52.544;13.374;2023-01-23T09:13:44;28.05;;;17.55;;
2129;SDS011;1071;52.544;13.374;2023-01-23T09:16:11;23.20;;;17.13;;
2129;SDS011;1071;52.544;13.374;2023-01-23T09:18:38;24.45;;;18.08;;
2129;SDS011;1071;52.544;13.374;2023-01-23T09:21:05;22.90;;;16.38;;
2129;SDS011;1071;52.544;13.374;2023-01-23T09:23:33;21.40;;;16.08;;
2129;SDS011;1071;52.544;13.374;2023-01-23T09:26:03;22.60;;;17.83;;
2129;SDS011;1071;52.544;13.374;2023-01-23T09:28:31;28.38;;;17.70;;
2129;SDS011;1071;52.544;13.374;2023-01-23T09:31:03;26.05;;;15.30;;
2129;SDS011;1071;52.544;13.374;2023-01-23T09:33:31;26.35;;;17.08;;
2129;SDS011;1071;52.544;13.374;2023-01-23T09:35:58;21.67;;;16.95;;
2129;SDS011;1071;52.544;13.374;2023-01-23T09:38:25;22.65;;;17.27;;
2129;SDS011;1071;52.544;13.374;2023-01-23T09:40:53;21.75;;;16.13;;
2129;SDS011;1071;52.544;13.374;2023-01-23T09:43:23;25.35;;;18.75;;
2129;SDS011;1071;52.544;13.374;2023-01-23T09:45:57;22.38;;;15.95;;
2129;SDS011;1071;52.544;13.374;2023-01-23T09:48:31;26.25;;;16.63;;
2129;SDS011;1071;52.544;13.374;2023-01-23T09:51:09;21.15;;;17.63;;
2129;SDS011;1071;52.544;13.374;2023-01-23T09:53:40;22.80;;;16.83;;
2129;SDS011;1071;52.544;13.374;2023-01-23T09:56:11;19.25;;;15.85;;
2129;SDS011;1071;52.544;13.374;2023-01-23T09:58:51;29.30;;;16.95;;
2129;SDS011;1071;52.544;13.374;2023-01-23T10:01:30;22.45;;;16.23;;
2129;SDS011;1071;52.544;13.374;2023-01-23T10:03:57;24.45;;;16.80;;
2129;SDS011;1071;52.544;13.374;2023-01-23T10:06:26;27.08;;;16.48;;
2129;SDS011;1071;52.544;13.374;2023-01-23T10:09:02;22.05;;;17.20;;
2129;SDS011;1071;52.544;13.374;2023-01-23T10:11:52;24.67;;;15.93;;
2129;SDS011;1071;52.544;13.374;2023-01-23T10:14:34;27.10;;;18.27;;
2129;SDS011;1071;52.544;13.374;2023-01-23T10:17:13;21.40;;;15.57;;
2129;SDS011;1071;52.544;13.374;2023-01-23T10:19:51;22.50;;;16.90;;
2129;SDS011;1071;52.544;13.374;2023-01-23T10:22:34;20.98;;;16.55;;
2129;SDS011;1071;52.544;13.374;2023-01-23T10:25:34;27.30;;;17.40;;
2129;SDS011;1071;52.544;13.374;2023-01-23T10:28:21;25.00;;;18.73;;
2129;SDS011;1071;52.544;13.374;2023-01-23T10:30:56;23.85;;;17.67;;
2129;SDS011;1071;52.544;13.374;2023-01-23T10:33:33;22.33;;;16.70;;
2129;SDS011;1071;52.544;13.374;2023-01-23T10:36:06;22.55;;;17.33;;
2129;SDS011;1071;52.544;13.374;2023-01-23T10:38:52;22.08;;;16.25;;
2129;SDS011;1071;52.544;13.374;2023-01-23T10:41:24;26.38;;;19.67;;
2129;SDS011;1071;52.544;13.374;2023-01-23T10:43:53;23.35;;;16.42;;
2129;SDS011;1071;52.544;13.374;2023-01-23T10:46:23;23.75;;;17.90;;
2129;SDS011;1071;52.544;13.374;2023-01-23T10:48:57;24.25;;;16.98;;
2129;SDS011;1071;52.544;13.374;2023-01-23T10:51:32;31.35;;;18.85;;
2129;SDS011;1071;52.544;13.374;2023-01-23T10:54:10;21.77;;;16.05;;
2129;SDS011;1071;52.544;13.374;2023-01-23T10:56:44;24.98;;;17.02;;
2129;SDS011;1071;52.544;13.374;2023-01-23T11:02:17;22.08;;;17.83;;
2129;SDS011;1071;52.544;13.374;2023-01-23T11:04:48;25.10;;;17.63;;
2129;SDS011;1071;52.544;13.374;2023-01-23T11:07:17;22.25;;;16.70;;
2129;SDS011;1071;52.544;13.374;2023-01-23T11:09:47;22.42;;;17.98;;
2129;SDS011;1071;52.544;13.374;2023-01-23T11:12:17;22.85;;;17.70;;
2129;SDS011;1071;52.544;13.374;2023-01-23T11:14:46;22.30;;;17.80;;
2129;SDS011;1071;52.544;13.374;2023-01-23T11:17:15;19.42;;;14.77;;
2129;SDS011;1071;52.544;13.374;2023-01-23T11:19:47;21.70;;;16.67;;
2129;SDS011;1071;52.544;13.374;2023-01-23T11:22:28;20.88;;;16.20;;
2129;SDS011;1071;52.544;13.374;2023-01-23T11:25:16;21.17;;;16.40;;
2129;SDS011;1071;52.544;13.374;2023-01-23T11:27:57;22.77;;;17.27;;
2129;SDS011;1071;52.544;13.374;2023-01-23T11:30:30;22.05;;;17.60;;
2129;SDS011;1071;52.544;13.374;2023-01-23T11:33:09;23.33;;;17.20;;
2129;SDS011;1071;52.544;13.374;2023-01-23T11:35:51;24.08;;;17.42;;
2129;SDS011;1071;52.544;13.374;2023-01-23T11:38:25;25.02;;;17.42;;
2129;SDS011;1071;52.544;13.374;2023-01-23T11:41:00;24.95;;;17.08;;
2129;SDS011;1071;52.544;13.374;2023-01-23T11:43:28;24.63;;;18.92;;
2129;SDS011;1071;52.544;13.374;2023-01-23T11:46:11;24.55;;;17.88;;
2129;SDS011;1071;52.544;13.374;2023-01-23T11:49:10;24.42;;;18.35;;
2129;SDS011;1071;52.544;13.374;2023-01-23T11:51:50;22.25;;;18.25;;
2129;SDS011;1071;52.544;13.374;2023-01-23T11:54:36;25.50;;;17.90;;
2129;SDS011;1071;52.544;13.374;2023-01-23T11:57:16;22.73;;;16.77;;
2129;SDS011;1071;52.544;13.374;2023-01-23T11:59:56;20.45;;;18.15;;
2129;SDS011;1071;52.544;13.374;2023-01-23T12:02:39;22.45;;;17.88;;
2129;SDS011;1071;52.544;13.374;2023-01-23T12:05:25;22.98;;;16.15;;
2129;SDS011;1071;52.544;13.374;2023-01-23T12:08:10;21.45;;;17.13;;
2129;SDS011;1071;52.544;13.374;2023-01-23T12:10:48;19.05;;;15.02;;
2129;SDS011;1071;52.544;13.374;2023-01-23T12:13:32;23.17;;;15.48;;
2129;SDS011;1071;52.544;13.374;2023-01-23T12:16:18;18.58;;;15.48;;
2129;SDS011;1071;52.544;13.374;2023-01-23T12:18:53;22.15;;;16.77;;
2129;SDS011;1071;52.544;13.374;2023-01-23T12:21:34;21.30;;;15.50;;
2129;SDS011;1071;52.544;13.374;2023-01-23T12:24:12;21.63;;;15.32;;
2129;SDS011;1071;52.544;13.374;2023-01-23T12:26:50;21.02;;;15.75;;
2129;SDS011;1071;52.544;13.374;2023-01-23T12:29:35;18.10;;;14.57;;
2129;SDS011;1071;52.544;13.374;2023-01-23T12:32:18;20.33;;;15.13;;
2129;SDS011;1071;52.544;13.374;2023-01-23T12:35:18;18.77;;;13.88;;
2129;SDS011;1071;52.544;13.374;2023-01-23T12:41:11;16.17;;;12.57;;
2129;SDS011;1071;52.544;13.374;2023-01-23T12:44:16;16.85;;;14.35;;
2129;SDS011;1071;52.544;13.374;2023-01-23T12:46:50;16.98;;;13.20;;
2129;SDS011;1071;52.544;13.374;2023-01-23T12:49:32;21.10;;;14.93;;
2129;SDS011;1071;52.544;13.374;2023-01-23T12:52:14;15.70;;;11.75;;
2129;SDS011;1071;52.544;13.374;2023-01-23T12:54:54;20.13;;;12.85;;
2129;SDS011;1071;52.544;13.374;2023-01-23T12:57:50;21.27;;;14.38;;
2129;SDS011;1071;52.544;13.374;2023-01-23T13:00:38;18.35;;;13.88;;
2129;SDS011;1071;52.544;13.374;2023-01-23T13:03:24;15.95;;;12.98;;
2129;SDS011;1071;52.544;13.374;2023-01-23T13:06:18;18.52;;;14.25;;
2129;SDS011;1071;52.544;13.374;2023-01-23T13:09:03;15.68;;;13.48;;
2129;SDS011;1071;52.544;13.374;2023-01-23T13:11:38;17.60;;;13.15;;
2129;SDS011;1071;52.544;13.374;2023-01-23T13:14:23;18.42;;;13.27;;
2129;SDS011;1071;52.544;13.374;2023-01-23T13:17:22;18.92;;;14.65;;
2129;SDS011;1071;52.544;13.374;2023-01-23T13:20:17;15.65;;;11.50;;
2129;SDS011;1071;52.544;13.374;2023-01-23T13:23:19;15.45;;;12.02;;
2129;SDS011;1071;52.544;13.374;2023-01-23T13:28:55;16.23;;;11.82;;
2129;SDS011;1071;52.544;13.374;2023-01-23T13:40:19;15.38;;;12.15;;
2129;SDS011;1071;52.544;13.374;2023-01-23T13:42:50;15.15;;;11.90;;
2129;SDS011;1071;52.544;13.374;2023-01-23T13:48:09;14.45;;;12.27;;
2129;SDS011;1071;52.544;13.374;2023-01-23T13:51:22;17.13;;;11.82;;
2129;SDS011;1071;52.544;13.374;2023-01-23T13:53:55;15.98;;;11.27;;
2129;SDS011;1071;52.544;13.374;2023-01-23T13:56:43;21.48;;;13.38;;
2129;SDS011;1071;52.544;13.374;2023-01-23T13:59:28;17.92;;;13.70;;
2129;SDS011;1071;52.544;13.374;2023-01-23T14:02:03;14.48;;;12.35;;
2129;SDS011;1071;52.544;13.374;2023-01-23T14:05:03;16.88;;;12.13;;
2129;SDS011;1071;52.544;13.374;2023-01-23T14:07:42;16.52;;;11.90;;
2129;SDS011;1071;52.544;13.374;2023-01-23T14:12:59;14.88;;;11.35;;
2129;SDS011;1071;52.544;13.374;2023-01-23T14:15:29;14.25;;;11.48;;
2129;SDS011;1071;52.544;13.374;2023-01-23T14:18:16;17.25;;;10.93;;
2129;SDS011;1071;52.544;13.374;2023-01-23T14:20:48;13.85;;;11.80;;
2129;SDS011;1071;52.544;13.374;2023-01-23T14:23:37;15.43;;;11.30;;
2129;SDS011;1071;52.544;13.374;2023-01-23T14:26:07;17.35;;;13.52;;
2129;SDS011;1071;52.544;13.374;2023-01-23T14:28:36;14.90;;;11.20;;
2129;SDS011;1071;52.544;13.374;2023-01-23T14:31:04;13.07;;;10.23;;
2129;SDS011;1071;52.544;13.374;2023-01-23T14:33:38;16.20;;;11.15;;
2129;SDS011;1071;52.544;13.374;2023-01-23T14:36:11;14.95;;;11.50;;
2129;SDS011;1071;52.544;13.374;2023-01-23T14:38:41;14.02;;;10.57;;
2129;SDS011;1071;52.544;13.374;2023-01-23T14:41:12;15.18;;;12.10;;
2129;SDS011;1071;52.544;13.374;2023-01-23T14:43:39;16.20;;;11.68;;
2129;SDS011;1071;52.544;13.374;2023-01-23T14:46:32;17.42;;;11.38;;
2129;SDS011;1071;52.544;13.374;2023-01-23T14:49:02;14.60;;;10.00;;
2129;SDS011;1071;52.544;13.374;2023-01-23T14:51:35;12.85;;;11.55;;
2129;SDS011;1071;52.544;13.374;2023-01-23T14:54:03;10.35;;;9.23;;
2129;SDS011;1071;52.544;13.374;2023-01-23T14:56:41;13.52;;;10.23;;
2129;SDS011;1071;52.544;13.374;2023-01-23T14:59:14;14.00;;;11.05;;
2129;SDS011;1071;52.544;13.374;2023-01-23T15:01:51;12.55;;;10.02;;
2129;SDS011;1071;52.544;13.374;2023-01-23T15:04:20;12.23;;;10.48;;
2129;SDS011;1071;52.544;13.374;2023-01-23T15:06:55;14.77;;;12.18;;
2129;SDS011;1071;52.544;13.374;2023-01-23T15:09:25;14.57;;;11.35;;
2129;SDS011;1071;52.544;13.374;2023-01-23T15:11:57;18.52;;;12.02;;
2129;SDS011;1071;52.544;13.374;2023-01-23T15:14:34;15.27;;;11.45;;
2129;SDS011;1071;52.544;13.374;2023-01-23T15:17:06;11.30;;;9.85;;
2129;SDS011;1071;52.544;13.374;2023-01-23T15:19:38;14.18;;;11.52;;
2129;SDS011;1071;52.544;13.374;2023-01-23T15:22:15;15.80;;;11.70;;
2129;SDS011;1071;52.544;13.374;2023-01-23T15:24:46;20.70;;;13.15;;
2129;SDS011;1071;52.544;13.374;2023-01-23T15:27:25;11.70;;;10.38;;
2129;SDS011;1071;52.544;13.374;2023-01-23T15:33:23;17.70;;;12.30;;